CheckWX is a tool to help pilots better visualize weather data.  It is not intended as a substitute for an official pre-flight weather briefing.

12:28:03 UTC

KPSX METAR
Palacios Municipal Airport
Palacios, Texas, USA
Current

35 mins ago

KPSX 181153Z AUTO 04013KT 10SM OVC060 11/04 A3005 RMK AO2 SLP175 70004 T01110044 10111 20106 53011
Observed
Feb-18 @ 11:53 UTC
Wind
  • 040° at 13 KTS
Visibility
10 SM
Flight Rules
VFR
Cloud Levels
  • Overcast at 6,000' AGL
Temperature
11°C / 52°F
Dewpoint
C / 39°F
Humidity
62%
Altimeter
30.05" Hg
Pressure
1017.5 hPa
Previous

2 hours ago

KPSX 181053Z AUTO 02013KT 10SM OVC050 11/05 A3003 RMK AO2 SLP167 T01110050
Observed
Feb-18 @ 10:53 UTC
Wind
  • 020° at 13 KTS
Visibility
10 SM
Flight Rules
VFR
Cloud Levels
  • Overcast at 5,000' AGL
Temperature
11°C / 52°F
Dewpoint
C / 41°F
Humidity
67%
Altimeter
30.03" Hg
Pressure
1016.7 hPa
Previous

3 hours ago

KPSX 180953Z AUTO 02019G26KT 10SM OVC050 11/06 A3002 RMK AO2 PK WND 02027/0912 SLP166 T01110056
Observed
Feb-18 @ 09:53 UTC
Wind
  • 020° at 19 KTS
  • Gusting to 26 KTS
Visibility
10 SM
Flight Rules
VFR
Cloud Levels
  • Overcast at 5,000' AGL
Temperature
11°C / 52°F
Dewpoint
C / 43°F
Humidity
72%
Altimeter
30.02" Hg
Pressure
1016.6 hPa